createdAt,value
2019-02-24T00:00:44.335Z,102037.28
2019-02-24T00:06:18.094Z,102031.04
2019-02-24T00:09:18.709Z,102027.53
2019-02-24T00:11:51.850Z,102024.80
2019-02-24T00:15:25.320Z,102027.92
2019-02-24T00:18:11.420Z,102025.97
2019-02-24T00:23:58.294Z,102016.28
2019-02-24T00:30:13.390Z,102019.83
2019-02-24T00:33:16.966Z,102021.34
2019-02-24T00:35:49.559Z,102025.91
2019-02-24T00:42:43.249Z,102011.89
2019-02-24T00:44:59.044Z,102007.24
2019-02-24T00:50:57.252Z,102008.27
2019-02-24T00:57:19.011Z,102012.25
2019-02-24T00:59:54.984Z,102004.67
2019-02-24T01:05:38.173Z,102007.52
2019-02-24T01:11:02.467Z,102004.77
2019-02-24T01:18:00.711Z,102008.37
2019-02-24T01:23:38.688Z,102008.27
2019-02-24T01:26:40.826Z,102018.61
2019-02-24T01:29:13.172Z,102018.61
2019-02-24T01:35:42.416Z,102012.16
2019-02-24T01:39:01.109Z,102019.56
2019-02-24T01:41:22.925Z,102016.52
2019-02-24T01:50:15.284Z,102009.43
2019-02-24T01:56:19.156Z,102005.17
2019-02-24T02:05:25.520Z,102006.12
2019-02-24T02:11:32.209Z,102007.43
2019-02-24T02:17:47.451Z,102000.98
2019-02-24T02:21:05.917Z,102001.39
2019-02-24T02:23:57.849Z,102003.54
2019-02-24T02:27:18.108Z,101991.23
2019-02-24T02:29:51.291Z,101995.98
2019-02-24T02:32:54.847Z,101993.50
2019-02-24T02:50:52.012Z,101981.75
2019-02-24T03:02:50.611Z,101972.02
2019-02-24T03:06:08.053Z,101972.87
2019-02-24T03:12:37.812Z,101973.34
2019-02-24T03:18:21.097Z,101953.50
2019-02-24T03:21:16.646Z,101971.33
2019-02-24T03:24:19.494Z,101971.05
2019-02-24T03:27:24.632Z,101971.44
2019-02-24T03:33:29.019Z,101974.58
2019-02-24T03:39:34.432Z,101978.21
2019-02-24T03:42:07.793Z,101966.57
2019-02-24T03:47:27.415Z,101970.94
2019-02-24T03:49:59.983Z,101974.84
2019-02-24T03:52:52.335Z,101974.55
2019-02-24T03:55:28.726Z,101976.34
2019-02-24T03:58:38.912Z,101979.18
2019-02-24T04:01:17.999Z,101983.55
2019-02-24T04:04:27.745Z,101975.48
2019-02-24T04:10:38.260Z,101977.75
2019-02-24T04:20:20.986Z,101978.00
2019-02-24T04:26:27.246Z,101978.39
2019-02-24T04:29:31.229Z,101975.34
2019-02-24T04:32:25.302Z,101971.91
2019-02-24T04:35:00.348Z,101956.61
2019-02-24T04:37:30.767Z,101973.91
2019-02-24T04:40:04.444Z,101967.64
2019-02-24T04:52:28.700Z,101972.02
2019-02-24T04:55:40.927Z,101978.13
2019-02-24T04:58:55.873Z,101977.95
2019-02-24T05:02:01.120Z,101972.33
2019-02-24T05:07:56.912Z,101974.73
2019-02-24T05:10:29.019Z,101976.45
2019-02-24T05:16:34.580Z,101969.43
2019-02-24T05:22:11.431Z,101975.70
2019-02-24T05:25:38.091Z,101982.56
2019-02-24T05:28:07.703Z,101982.28
2019-02-24T05:30:45.997Z,101980.02
2019-02-24T05:46:08.287Z,101978.70
2019-02-24T05:49:14.867Z,101982.11
2019-02-24T05:55:06.675Z,101985.50
2019-02-24T05:57:39.527Z,101988.96
2019-02-24T06:00:36.974Z,101986.43
2019-02-24T06:09:47.551Z,101986.61
2019-02-24T06:18:20.660Z,102001.29
2019-02-24T06:21:31.576Z,102009.80
2019-02-24T06:24:33.311Z,102011.53
2019-02-24T06:27:28.884Z,102007.73
2019-02-24T06:30:04.813Z,102012.56
2019-02-24T06:36:09.274Z,102013.16
2019-02-24T06:38:41.795Z,102012.91
2019-02-24T06:41:15.079Z,102018.16
2019-02-24T06:43:49.156Z,102015.45
2019-02-24T06:47:24.517Z,102017.29
2019-02-24T06:50:34.892Z,102024.89
2019-02-24T06:56:31.731Z,102029.39
2019-02-24T07:02:18.345Z,102015.85
2019-02-24T07:05:14.187Z,102018.52
2019-02-24T07:07:45.989Z,102021.61
2019-02-24T07:10:19.837Z,102012.11
2019-02-24T07:16:44.177Z,102010.65
2019-02-24T07:19:46.233Z,102012.70
2019-02-24T07:22:58.590Z,102021.87
2019-02-24T07:28:27.479Z,102017.27
2019-02-24T07:34:59.233Z,102024.35
2019-02-24T07:40:49.468Z,102019.16
2019-02-24T07:46:57.893Z,102014.34
2019-02-24T07:49:42.776Z,102018.98
2019-02-24T08:05:40.263Z,102017.78
2019-02-24T08:08:55.895Z,102019.43
2019-02-24T08:11:29.538Z,102026.09
2019-02-24T08:17:14.734Z,102032.31
2019-02-24T08:19:46.369Z,102041.64
2019-02-24T08:22:36.080Z,102034.02
2019-02-24T08:25:27.120Z,102036.36
2019-02-24T08:28:17.475Z,102034.02
2019-02-24T08:31:09.703Z,102045.36
2019-02-24T08:33:48.030Z,102033.73
2019-02-24T08:36:19.748Z,102034.53
2019-02-24T08:39:09.078Z,102078.56
2019-02-24T08:41:39.403Z,102078.56
2019-02-24T08:44:28.975Z,102030.09
2019-02-24T08:50:09.508Z,102053.91
2019-02-24T08:52:44.637Z,102058.17
2019-02-24T08:55:15.625Z,102054.05
2019-02-24T08:58:25.873Z,102048.45
2019-02-24T09:01:10.002Z,102051.03
2019-02-24T09:04:19.272Z,102050.87
2019-02-24T09:06:55.404Z,102046.39
2019-02-24T09:09:30.813Z,102043.36
2019-02-24T09:12:03.101Z,102047.34
2019-02-24T09:14:35.296Z,102044.28
2019-02-24T09:17:06.275Z,102052.28
2019-02-24T09:22:49.011Z,102043.03
2019-02-24T09:25:21.048Z,102054.39
2019-02-24T09:28:13.601Z,102049.23
2019-02-24T09:31:04.106Z,102050.66
2019-02-24T09:33:55.704Z,102046.73
2019-02-24T09:36:47.015Z,102056.50
2019-02-24T09:39:19.441Z,102038.86
2019-02-24T09:45:22.140Z,102052.71
2019-02-24T09:48:30.528Z,102050.63
2019-02-24T09:51:02.310Z,102059.56
2019-02-24T09:53:52.189Z,102067.16
2019-02-24T09:56:43.527Z,102076.72
2019-02-24T09:59:47.765Z,102063.52
2019-02-24T10:02:26.475Z,102066.38
2019-02-24T10:05:18.461Z,102071.59
2019-02-24T10:19:57.265Z,102077.66
2019-02-24T10:25:58.277Z,102077.45
2019-02-24T10:28:48.579Z,102081.69
2019-02-24T10:31:39.315Z,102079.57
2019-02-24T10:34:49.515Z,102067.19
2019-02-24T10:37:21.834Z,102069.88
2019-02-24T10:39:52.184Z,102071.91
2019-02-24T10:45:27.604Z,102073.62
2019-02-24T10:48:17.283Z,102071.94
2019-02-24T10:53:39.122Z,102070.81
2019-02-24T10:59:51.933Z,102071.70
2019-02-24T11:02:32.290Z,102071.70
2019-02-24T11:05:04.080Z,102067.03
2019-02-24T11:07:56.575Z,102051.83
2019-02-24T11:10:26.996Z,102065.75
2019-02-24T11:13:29.436Z,102059.67
2019-02-24T11:19:53.360Z,102054.77
2019-02-24T11:22:14.817Z,102056.97
2019-02-24T11:25:15.262Z,102057.73
2019-02-24T11:27:58.994Z,102060.06
2019-02-24T11:30:39.468Z,102055.14
2019-02-24T11:36:12.230Z,102047.70
2019-02-24T11:41:28.375Z,102052.39
2019-02-24T11:44:00.320Z,102055.17
2019-02-24T11:46:51.482Z,102046.02
2019-02-24T11:50:01.095Z,102050.19
2019-02-24T11:58:39.521Z,102042.25
2019-02-24T12:01:10.620Z,102038.89
2019-02-24T12:04:20.147Z,102045.27
2019-02-24T12:07:05.838Z,102030.65
2019-02-24T12:09:27.124Z,102027.23
2019-02-24T12:12:36.829Z,102023.92
2019-02-24T12:15:41.077Z,102023.05
2019-02-24T12:18:33.591Z,102022.55
2019-02-24T12:30:02.355Z,102010.34
2019-02-24T12:32:53.212Z,102010.83
2019-02-24T12:35:47.013Z,102008.28
2019-02-24T12:38:38.253Z,102005.80
2019-02-24T12:44:11.356Z,101995.89
2019-02-24T12:46:43.423Z,101986.12
2019-02-24T12:52:04.088Z,101989.39
2019-02-24T12:57:35.924Z,101976.44
2019-02-24T13:00:46.352Z,101980.72
2019-02-24T13:06:25.084Z,101965.70
2019-02-24T13:09:35.573Z,101955.27
2019-02-24T13:12:27.359Z,101969.11
2019-02-24T13:18:06.647Z,101960.19
2019-02-24T13:20:37.414Z,101953.58
2019-02-24T13:23:10.979Z,101947.67
2019-02-24T13:25:43.207Z,101947.67
2019-02-24T13:28:16.033Z,101950.20
2019-02-24T13:30:47.175Z,101942.10
2019-02-24T13:36:08.648Z,101943.11
2019-02-24T13:42:14.182Z,101940.41
2019-02-24T13:44:47.924Z,101929.97
2019-02-24T13:47:56.336Z,101930.95
2019-02-24T13:51:05.693Z,101921.81
2019-02-24T13:53:46.872Z,101919.59
2019-02-24T13:56:36.667Z,101922.88
2019-02-24T14:02:33.808Z,101924.72
2019-02-24T14:05:27.008Z,101908.50
2019-02-24T14:08:17.448Z,101912.72
2019-02-24T14:10:51.786Z,101910.59
2019-02-24T14:13:33.579Z,101911.09
2019-02-24T14:16:03.658Z,101906.88
2019-02-24T14:21:46.442Z,101907.19
2019-02-24T14:27:44.305Z,101900.91
2019-02-24T14:30:05.250Z,101893.66
2019-02-24T14:35:57.789Z,101899.67
2019-02-24T14:38:38.481Z,101900.58
2019-02-24T14:44:48.002Z,101907.55
2019-02-24T14:47:37.500Z,101891.16
2019-02-24T14:50:09.092Z,101907.94
2019-02-24T14:52:43.402Z,101902.36
2019-02-24T14:55:19.579Z,101905.11
2019-02-24T14:57:53.181Z,101908.66
2019-02-24T15:01:01.287Z,101908.30
2019-02-24T15:03:35.361Z,101911.00
2019-02-24T15:06:08.283Z,101912.03
2019-02-24T15:08:41.948Z,101910.70
2019-02-24T15:11:16.755Z,101904.20
2019-02-24T15:13:51.849Z,101914.23
2019-02-24T15:16:56.286Z,101910.66
2019-02-24T15:19:37.384Z,101915.19
2019-02-24T15:22:10.316Z,101915.63
2019-02-24T15:24:59.492Z,101915.63
2019-02-24T15:27:49.367Z,101913.77
2019-02-24T15:30:24.261Z,101910.91
2019-02-24T15:32:54.389Z,101913.11
2019-02-24T15:35:46.625Z,101914.37
2019-02-24T15:41:49.527Z,101918.97
2019-02-24T15:45:10.999Z,101916.44
2019-02-24T15:47:53.696Z,101925.37
2019-02-24T15:56:34.939Z,101932.00
2019-02-24T15:59:21.194Z,101928.80
2019-02-24T16:02:00.670Z,101930.69
2019-02-24T16:04:33.956Z,101922.07
2019-02-24T16:07:07.812Z,101922.77
2019-02-24T16:09:57.713Z,101925.47
2019-02-24T16:16:09.728Z,101923.08
2019-02-24T16:19:08.872Z,101923.42
2019-02-24T16:21:59.179Z,101923.42
2019-02-24T16:24:48.908Z,101920.41
2019-02-24T16:27:41.065Z,101920.80
2019-02-24T16:34:01.177Z,101921.50
2019-02-24T16:36:54.910Z,101919.78
2019-02-24T16:39:44.820Z,101926.42
2019-02-24T16:42:35.332Z,101914.86
2019-02-24T16:45:25.997Z,101910.34
2019-02-24T16:48:00.292Z,101902.39
2019-02-24T16:50:31.604Z,101909.13
2019-02-24T16:53:23.163Z,101903.61
2019-02-24T16:55:55.947Z,101910.34
2019-02-24T16:58:28.547Z,101909.08
2019-02-24T17:01:18.479Z,101909.30
2019-02-24T17:07:19.948Z,101897.33
2019-02-24T17:09:51.704Z,101901.19
2019-02-24T17:12:44.545Z,101894.55
2019-02-24T17:15:27.695Z,101895.95
2019-02-24T17:24:49.296Z,101907.24
2019-02-24T17:27:19.626Z,101906.39
2019-02-24T17:29:51.548Z,101917.28
2019-02-24T17:32:25.356Z,101915.81
2019-02-24T17:34:57.599Z,101935.70
2019-02-24T17:44:00.100Z,101942.17
2019-02-24T17:46:25.307Z,101945.97
2019-02-24T17:48:59.660Z,101949.77
2019-02-24T17:51:45.405Z,101951.75
2019-02-24T17:54:16.578Z,101952.03
2019-02-24T17:56:48.500Z,101955.85
2019-02-24T17:59:19.674Z,101956.93
2019-02-24T18:02:09.773Z,101957.75
2019-02-24T18:05:01.613Z,101950.70
2019-02-24T18:13:50.816Z,101943.39
2019-02-24T18:16:41.848Z,101940.72
2019-02-24T18:19:34.115Z,101937.03
2019-02-24T18:22:24.264Z,101941.55
2019-02-24T18:25:03.248Z,101957.09
2019-02-24T18:27:49.282Z,101948.63
2019-02-24T18:30:25.196Z,101942.98
2019-02-24T18:33:15.179Z,101939.27
2019-02-24T18:36:08.265Z,101933.14
2019-02-24T18:55:06.851Z,101932.63
2019-02-24T19:00:42.006Z,101922.33
2019-02-24T19:06:15.699Z,101921.41
2019-02-24T19:12:16.814Z,101929.27
2019-02-24T19:15:08.387Z,101927.08
2019-02-24T19:17:59.374Z,101927.54
2019-02-24T19:21:09.979Z,101926.96
2019-02-24T19:23:42.967Z,101930.46
2019-02-24T19:26:16.141Z,101926.34
2019-02-24T19:28:47.944Z,101927.73
2019-02-24T19:31:33.436Z,101934.16
2019-02-24T19:40:10.169Z,101943.14
2019-02-24T19:43:08.806Z,101943.14
2019-02-24T19:52:33.739Z,101954.16
2019-02-24T19:55:47.731Z,101952.13
2019-02-24T19:58:17.517Z,101937.26
2019-02-24T20:01:34.547Z,101937.17
2019-02-24T20:03:50.642Z,101951.45
2019-02-24T20:09:41.460Z,101960.22
2019-02-24T20:12:14.506Z,101958.53
2019-02-24T20:17:47.779Z,101978.40
2019-02-24T20:20:45.850Z,101983.56
2019-02-24T20:23:36.111Z,101976.50
2019-02-24T20:26:16.225Z,101978.20
2019-02-24T20:32:28.111Z,101979.36
2019-02-24T20:35:01.873Z,101985.91
2019-02-24T20:37:50.971Z,101993.55
2019-02-24T20:40:43.036Z,101997.47
2019-02-24T20:43:14.463Z,101998.91
2019-02-24T20:46:06.178Z,101999.15
2019-02-24T20:48:50.077Z,101997.20
2019-02-24T20:54:34.510Z,101992.20
2019-02-24T21:00:31.129Z,101997.09
2019-02-24T21:03:04.066Z,101992.47
2019-02-24T21:05:35.105Z,101997.80
2019-02-24T21:08:24.976Z,101995.03
2019-02-24T21:10:56.281Z,101994.28
2019-02-24T21:13:47.131Z,101988.83
2019-02-24T21:16:18.301Z,101990.42
2019-02-24T21:19:04.108Z,101988.22
2019-02-24T21:21:25.287Z,101999.77
2019-02-24T21:23:58.150Z,101996.83
2019-02-24T21:29:50.656Z,101991.72
2019-02-24T21:32:44.289Z,102001.92
2019-02-24T21:35:21.351Z,102003.53
2019-02-24T21:37:56.879Z,102003.05
2019-02-24T21:40:28.640Z,102006.06
2019-02-24T21:43:04.170Z,102002.92
2019-02-24T21:45:54.189Z,102000.97
2019-02-24T21:48:30.721Z,102001.95
2019-02-24T21:51:01.097Z,102003.28
2019-02-24T21:57:09.385Z,102013.10
2019-02-24T22:00:21.447Z,102004.25
2019-02-24T22:02:37.206Z,102011.27
2019-02-24T22:08:32.274Z,102005.45
2019-02-24T22:11:23.767Z,102010.94
2019-02-24T22:14:02.696Z,102013.85
2019-02-24T22:16:56.529Z,102010.34
2019-02-24T22:19:34.687Z,102011.30
2019-02-24T22:22:45.380Z,102014.94
2019-02-24T22:35:00.636Z,101997.45
2019-02-24T22:41:12.504Z,101991.98
2019-02-24T22:43:45.629Z,101991.75
2019-02-24T22:49:47.600Z,101996.48
2019-02-24T22:52:40.470Z,101994.53
2019-02-24T22:55:11.042Z,101991.92
2019-02-24T22:58:01.134Z,101991.58
2019-02-24T23:00:54.192Z,101991.67
2019-02-24T23:03:49.840Z,101991.58
2019-02-24T23:06:21.006Z,101981.95
2019-02-24T23:08:51.945Z,101979.66
2019-02-24T23:11:43.033Z,101972.48
2019-02-24T23:14:13.761Z,101978.17
2019-02-24T23:17:17.029Z,101970.64
2019-02-24T23:19:49.377Z,101961.31
2019-02-24T23:22:14.806Z,101969.10
2019-02-24T23:24:47.242Z,101976.69
2019-02-24T23:27:18.558Z,101976.76
2019-02-24T23:29:50.294Z,101973.22
2019-02-24T23:35:33.998Z,101977.98
2019-02-24T23:38:07.156Z,101979.25
2019-02-24T23:40:38.454Z,101978.49
2019-02-24T23:43:31.274Z,101980.62
2019-02-24T23:46:16.943Z,101985.19
2019-02-24T23:48:53.633Z,101982.94
2019-02-24T23:51:25.433Z,101990.03
2019-02-24T23:58:23.547Z,101986.01
